sensor_id;sensor_type;location;lat;lon;timestamp;P1;durP1;ratioP1;P2;durP2;ratioP2
28357;SDS011;15605;48.114;11.522;2024-01-06T00:00:42;5.57;;;3.33;;
28357;SDS011;15605;48.114;11.522;2024-01-06T00:03:13;4.95;;;3.15;;
28357;SDS011;15605;48.114;11.522;2024-01-06T00:05:43;5.53;;;3.50;;
28357;SDS011;15605;48.114;11.522;2024-01-06T00:08:14;5.00;;;3.25;;
28357;SDS011;15605;48.114;11.522;2024-01-06T00:10:47;4.60;;;3.45;;
28357;SDS011;15605;48.114;11.522;2024-01-06T00:13:17;5.60;;;3.17;;
28357;SDS011;15605;48.114;11.522;2024-01-06T00:15:48;4.63;;;3.60;;
28357;SDS011;15605;48.114;11.522;2024-01-06T00:18:19;5.40;;;3.30;;
28357;SDS011;15605;48.114;11.522;2024-01-06T00:20:49;5.15;;;3.30;;
28357;SDS011;15605;48.114;11.522;2024-01-06T00:23:21;5.50;;;3.35;;
28357;SDS011;15605;48.114;11.522;2024-01-06T00:25:52;6.43;;;3.17;;
28357;SDS011;15605;48.114;11.522;2024-01-06T00:28:25;6.18;;;3.67;;
28357;SDS011;15605;48.114;11.522;2024-01-06T00:30:57;4.72;;;3.50;;
28357;SDS011;15605;48.114;11.522;2024-01-06T00:33:28;4.70;;;3.13;;
28357;SDS011;15605;48.114;11.522;2024-01-06T00:35:58;8.75;;;4.03;;
28357;SDS011;15605;48.114;11.522;2024-01-06T00:38:36;6.30;;;3.40;;
28357;SDS011;15605;48.114;11.522;2024-01-06T00:41:08;5.85;;;3.50;;
28357;SDS011;15605;48.114;11.522;2024-01-06T00:43:39;5.88;;;3.47;;
28357;SDS011;15605;48.114;11.522;2024-01-06T00:46:12;5.85;;;3.55;;
28357;SDS011;15605;48.114;11.522;2024-01-06T00:48:44;4.32;;;3.40;;
28357;SDS011;15605;48.114;11.522;2024-01-06T00:51:15;5.00;;;3.25;;
28357;SDS011;15605;48.114;11.522;2024-01-06T00:53:44;6.40;;;3.80;;
28357;SDS011;15605;48.114;11.522;2024-01-06T00:56:16;5.10;;;3.65;;
28357;SDS011;15605;48.114;11.522;2024-01-06T00:58:49;4.30;;;3.20;;
28357;SDS011;15605;48.114;11.522;2024-01-06T01:01:19;4.57;;;3.47;;
28357;SDS011;15605;48.114;11.522;2024-01-06T01:03:50;4.05;;;3.10;;
28357;SDS011;15605;48.114;11.522;2024-01-06T01:06:21;4.85;;;3.50;;
28357;SDS011;15605;48.114;11.522;2024-01-06T01:08:51;8.30;;;3.60;;
28357;SDS011;15605;48.114;11.522;2024-01-06T01:11:23;4.22;;;3.50;;
28357;SDS011;15605;48.114;11.522;2024-01-06T01:13:55;4.75;;;3.35;;
28357;SDS011;15605;48.114;11.522;2024-01-06T01:16:25;4.65;;;3.35;;
28357;SDS011;15605;48.114;11.522;2024-01-06T01:18:55;4.88;;;3.60;;
28357;SDS011;15605;48.114;11.522;2024-01-06T01:21:27;6.25;;;3.50;;
28357;SDS011;15605;48.114;11.522;2024-01-06T01:24:00;6.95;;;3.65;;
28357;SDS011;15605;48.114;11.522;2024-01-06T01:26:34;4.90;;;3.40;;
28357;SDS011;15605;48.114;11.522;2024-01-06T01:29:05;3.80;;;2.90;;
28357;SDS011;15605;48.114;11.522;2024-01-06T01:31:35;4.65;;;3.33;;
28357;SDS011;15605;48.114;11.522;2024-01-06T01:34:06;4.72;;;3.38;;
28357;SDS011;15605;48.114;11.522;2024-01-06T01:36:38;3.90;;;3.00;;
28357;SDS011;15605;48.114;11.522;2024-01-06T01:39:13;4.57;;;3.30;;
28357;SDS011;15605;48.114;11.522;2024-01-06T01:41:44;4.20;;;3.20;;
28357;SDS011;15605;48.114;11.522;2024-01-06T01:44:19;3.75;;;3.00;;
28357;SDS011;15605;48.114;11.522;2024-01-06T01:46:50;4.82;;;3.45;;
28357;SDS011;15605;48.114;11.522;2024-01-06T01:49:22;3.88;;;2.92;;
28357;SDS011;15605;48.114;11.522;2024-01-06T01:51:56;4.53;;;2.88;;
28357;SDS011;15605;48.114;11.522;2024-01-06T01:54:31;4.70;;;2.58;;
28357;SDS011;15605;48.114;11.522;2024-01-06T01:57:06;3.10;;;2.28;;
28357;SDS011;15605;48.114;11.522;2024-01-06T01:59:39;4.40;;;2.90;;
28357;SDS011;15605;48.114;11.522;2024-01-06T02:02:13;4.82;;;2.17;;
28357;SDS011;15605;48.114;11.522;2024-01-06T02:04:45;3.92;;;2.75;;
28357;SDS011;15605;48.114;11.522;2024-01-06T02:07:16;2.75;;;2.33;;
28357;SDS011;15605;48.114;11.522;2024-01-06T02:09:47;3.97;;;2.58;;
28357;SDS011;15605;48.114;11.522;2024-01-06T02:12:18;3.33;;;2.10;;
28357;SDS011;15605;48.114;11.522;2024-01-06T02:14:50;2.90;;;2.00;;
28357;SDS011;15605;48.114;11.522;2024-01-06T02:17:21;3.40;;;2.10;;
28357;SDS011;15605;48.114;11.522;2024-01-06T02:19:55;3.33;;;2.13;;
28357;SDS011;15605;48.114;11.522;2024-01-06T02:22:25;3.83;;;2.40;;
28357;SDS011;15605;48.114;11.522;2024-01-06T02:24:56;2.72;;;1.90;;
28357;SDS011;15605;48.114;11.522;2024-01-06T02:27:27;2.33;;;1.80;;
28357;SDS011;15605;48.114;11.522;2024-01-06T02:30:30;3.33;;;2.08;;
28357;SDS011;15605;48.114;11.522;2024-01-06T02:33:02;2.20;;;1.95;;
28357;SDS011;15605;48.114;11.522;2024-01-06T02:35:35;2.15;;;1.73;;
28357;SDS011;15605;48.114;11.522;2024-01-06T02:38:13;3.20;;;2.28;;
28357;SDS011;15605;48.114;11.522;2024-01-06T02:40:44;3.85;;;1.98;;
28357;SDS011;15605;48.114;11.522;2024-01-06T02:43:15;2.35;;;1.83;;
28357;SDS011;15605;48.114;11.522;2024-01-06T02:45:46;3.05;;;1.90;;
28357;SDS011;15605;48.114;11.522;2024-01-06T02:48:17;3.63;;;2.05;;
28357;SDS011;15605;48.114;11.522;2024-01-06T02:50:51;1.80;;;1.45;;
28357;SDS011;15605;48.114;11.522;2024-01-06T02:53:22;2.55;;;1.80;;
28357;SDS011;15605;48.114;11.522;2024-01-06T02:55:53;2.08;;;1.65;;
28357;SDS011;15605;48.114;11.522;2024-01-06T02:58:30;2.00;;;1.60;;
28357;SDS011;15605;48.114;11.522;2024-01-06T03:01:02;2.13;;;1.50;;
28357;SDS011;15605;48.114;11.522;2024-01-06T03:03:32;2.65;;;1.73;;
28357;SDS011;15605;48.114;11.522;2024-01-06T03:06:02;1.83;;;1.65;;
28357;SDS011;15605;48.114;11.522;2024-01-06T03:08:34;5.05;;;2.53;;
28357;SDS011;15605;48.114;11.522;2024-01-06T03:11:13;2.53;;;1.88;;
28357;SDS011;15605;48.114;11.522;2024-01-06T03:13:50;2.80;;;1.67;;
28357;SDS011;15605;48.114;11.522;2024-01-06T03:16:23;1.63;;;1.42;;
28357;SDS011;15605;48.114;11.522;2024-01-06T03:18:55;3.13;;;1.73;;
28357;SDS011;15605;48.114;11.522;2024-01-06T03:21:27;1.98;;;1.48;;
28357;SDS011;15605;48.114;11.522;2024-01-06T03:24:03;2.85;;;1.42;;
28357;SDS011;15605;48.114;11.522;2024-01-06T03:26:37;2.83;;;2.45;;
28357;SDS011;15605;48.114;11.522;2024-01-06T03:29:10;2.70;;;1.65;;
28357;SDS011;15605;48.114;11.522;2024-01-06T03:31:43;2.10;;;1.52;;
28357;SDS011;15605;48.114;11.522;2024-01-06T03:34:15;1.70;;;1.25;;
28357;SDS011;15605;48.114;11.522;2024-01-06T03:36:46;3.38;;;1.60;;
28357;SDS011;15605;48.114;11.522;2024-01-06T03:39:17;2.67;;;1.30;;
28357;SDS011;15605;48.114;11.522;2024-01-06T03:41:50;2.88;;;1.60;;
28357;SDS011;15605;48.114;11.522;2024-01-06T03:44:21;2.03;;;1.45;;
28357;SDS011;15605;48.114;11.522;2024-01-06T03:46:51;2.15;;;1.50;;
28357;SDS011;15605;48.114;11.522;2024-01-06T03:49:23;2.28;;;1.58;;
28357;SDS011;15605;48.114;11.522;2024-01-06T03:51:56;1.88;;;1.40;;
28357;SDS011;15605;48.114;11.522;2024-01-06T03:54:27;3.88;;;1.48;;
28357;SDS011;15605;48.114;11.522;2024-01-06T03:56:59;2.15;;;1.30;;
28357;SDS011;15605;48.114;11.522;2024-01-06T03:59:31;1.88;;;1.42;;
28357;SDS011;15605;48.114;11.522;2024-01-06T04:02:02;2.30;;;1.33;;
28357;SDS011;15605;48.114;11.522;2024-01-06T04:04:35;2.70;;;1.55;;
28357;SDS011;15605;48.114;11.522;2024-01-06T04:07:06;2.30;;;1.10;;
28357;SDS011;15605;48.114;11.522;2024-01-06T04:09:41;1.27;;;1.10;;
28357;SDS011;15605;48.114;11.522;2024-01-06T04:12:14;1.98;;;1.40;;
28357;SDS011;15605;48.114;11.522;2024-01-06T04:14:46;1.58;;;1.17;;
28357;SDS011;15605;48.114;11.522;2024-01-06T04:17:19;1.30;;;0.95;;
28357;SDS011;15605;48.114;11.522;2024-01-06T04:19:49;1.30;;;1.10;;
28357;SDS011;15605;48.114;11.522;2024-01-06T04:22:21;1.95;;;1.17;;
28357;SDS011;15605;48.114;11.522;2024-01-06T04:24:53;2.63;;;1.38;;
28357;SDS011;15605;48.114;11.522;2024-01-06T04:27:25;2.47;;;1.48;;
28357;SDS011;15605;48.114;11.522;2024-01-06T04:29:55;1.60;;;1.13;;
28357;SDS011;15605;48.114;11.522;2024-01-06T04:32:36;2.70;;;1.40;;
28357;SDS011;15605;48.114;11.522;2024-01-06T04:35:09;2.50;;;1.40;;
28357;SDS011;15605;48.114;11.522;2024-01-06T04:37:42;1.30;;;1.20;;
28357;SDS011;15605;48.114;11.522;2024-01-06T04:40:13;2.33;;;1.42;;
28357;SDS011;15605;48.114;11.522;2024-01-06T04:42:45;1.30;;;1.00;;
28357;SDS011;15605;48.114;11.522;2024-01-06T04:45:17;1.20;;;1.10;;
28357;SDS011;15605;48.114;11.522;2024-01-06T04:47:53;1.70;;;1.20;;
28357;SDS011;15605;48.114;11.522;2024-01-06T04:50:24;1.45;;;1.10;;
28357;SDS011;15605;48.114;11.522;2024-01-06T04:52:56;1.70;;;1.10;;
28357;SDS011;15605;48.114;11.522;2024-01-06T04:55:27;1.40;;;1.30;;
28357;SDS011;15605;48.114;11.522;2024-01-06T04:58:06;1.13;;;0.98;;
28357;SDS011;15605;48.114;11.522;2024-01-06T05:00:37;1.63;;;1.13;;
28357;SDS011;15605;48.114;11.522;2024-01-06T05:03:09;1.13;;;1.00;;
28357;SDS011;15605;48.114;11.522;2024-01-06T05:05:40;1.45;;;1.08;;
28357;SDS011;15605;48.114;11.522;2024-01-06T05:10:45;2.35;;;1.25;;
28357;SDS011;15605;48.114;11.522;2024-01-06T05:13:16;1.33;;;1.15;;
28357;SDS011;15605;48.114;11.522;2024-01-06T05:15:51;1.08;;;0.98;;
28357;SDS011;15605;48.114;11.522;2024-01-06T05:18:22;0.98;;;0.80;;
28357;SDS011;15605;48.114;11.522;2024-01-06T05:20:54;1.75;;;0.88;;
28357;SDS011;15605;48.114;11.522;2024-01-06T05:23:25;1.08;;;0.95;;
28357;SDS011;15605;48.114;11.522;2024-01-06T05:25:57;1.13;;;0.90;;
28357;SDS011;15605;48.114;11.522;2024-01-06T05:28:28;0.93;;;0.82;;
28357;SDS011;15605;48.114;11.522;2024-01-06T05:31:01;1.35;;;0.75;;
28357;SDS011;15605;48.114;11.522;2024-01-06T05:33:33;0.90;;;0.80;;
28357;SDS011;15605;48.114;11.522;2024-01-06T05:36:05;0.80;;;0.70;;
28357;SDS011;15605;48.114;11.522;2024-01-06T05:38:39;1.02;;;0.77;;
28357;SDS011;15605;48.114;11.522;2024-01-06T05:41:12;0.85;;;0.70;;
28357;SDS011;15605;48.114;11.522;2024-01-06T05:43:44;0.80;;;0.70;;
28357;SDS011;15605;48.114;11.522;2024-01-06T05:46:31;0.60;;;0.60;;
28357;SDS011;15605;48.114;11.522;2024-01-06T05:49:04;0.77;;;0.63;;
28357;SDS011;15605;48.114;11.522;2024-01-06T05:51:36;0.82;;;0.60;;
28357;SDS011;15605;48.114;11.522;2024-01-06T05:54:15;0.80;;;0.70;;
28357;SDS011;15605;48.114;11.522;2024-01-06T05:56:48;0.90;;;0.80;;
28357;SDS011;15605;48.114;11.522;2024-01-06T05:59:19;1.13;;;0.70;;
28357;SDS011;15605;48.114;11.522;2024-01-06T06:01:50;0.50;;;0.50;;
28357;SDS011;15605;48.114;11.522;2024-01-06T06:04:21;0.73;;;0.52;;
28357;SDS011;15605;48.114;11.522;2024-01-06T06:17:50;0.60;;;0.40;;
28357;SDS011;15605;48.114;11.522;2024-01-06T06:20:20;0.60;;;0.43;;
28357;SDS011;15605;48.114;11.522;2024-01-06T06:26:43;0.50;;;0.40;;
28357;SDS011;15605;48.114;11.522;2024-01-06T06:47:27;2.45;;;1.50;;
28357;SDS011;15605;48.114;11.522;2024-01-06T07:04:43;4.90;;;1.20;;
28357;SDS011;15605;48.114;11.522;2024-01-06T07:07:14;2.15;;;1.15;;
28357;SDS011;15605;48.114;11.522;2024-01-06T07:09:44;2.17;;;1.30;;
28357;SDS011;15605;48.114;11.522;2024-01-06T07:12:14;3.38;;;1.30;;
28357;SDS011;15605;48.114;11.522;2024-01-06T07:14:45;1.90;;;1.13;;
28357;SDS011;15605;48.114;11.522;2024-01-06T07:17:16;3.97;;;1.45;;
28357;SDS011;15605;48.114;11.522;2024-01-06T07:19:47;1.27;;;1.10;;
28357;SDS011;15605;48.114;11.522;2024-01-06T07:22:17;1.33;;;1.20;;
28357;SDS011;15605;48.114;11.522;2024-01-06T07:24:48;2.15;;;1.25;;
28357;SDS011;15605;48.114;11.522;2024-01-06T07:27:19;1.92;;;1.20;;
28357;SDS011;15605;48.114;11.522;2024-01-06T07:29:50;2.28;;;1.17;;
28357;SDS011;15605;48.114;11.522;2024-01-06T07:32:26;2.60;;;1.08;;
28357;SDS011;15605;48.114;11.522;2024-01-06T07:34:58;2.08;;;1.13;;
28357;SDS011;15605;48.114;11.522;2024-01-06T07:37:30;1.30;;;1.10;;
28357;SDS011;15605;48.114;11.522;2024-01-06T07:40:02;2.40;;;1.38;;
28357;SDS011;15605;48.114;11.522;2024-01-06T07:42:33;1.42;;;0.90;;
28357;SDS011;15605;48.114;11.522;2024-01-06T07:45:03;1.75;;;1.30;;
28357;SDS011;15605;48.114;11.522;2024-01-06T07:47:34;1.58;;;0.80;;
28357;SDS011;15605;48.114;11.522;2024-01-06T07:50:09;1.33;;;1.00;;
28357;SDS011;15605;48.114;11.522;2024-01-06T07:52:42;1.80;;;1.20;;
28357;SDS011;15605;48.114;11.522;2024-01-06T07:55:18;2.15;;;1.20;;
28357;SDS011;15605;48.114;11.522;2024-01-06T07:57:58;1.90;;;1.35;;
28357;SDS011;15605;48.114;11.522;2024-01-06T08:00:28;1.55;;;1.13;;
28357;SDS011;15605;48.114;11.522;2024-01-06T08:03:00;1.20;;;0.85;;
28357;SDS011;15605;48.114;11.522;2024-01-06T08:05:47;2.22;;;1.20;;
28357;SDS011;15605;48.114;11.522;2024-01-06T08:08:17;1.90;;;1.15;;
28357;SDS011;15605;48.114;11.522;2024-01-06T08:10:48;1.50;;;1.05;;
28357;SDS011;15605;48.114;11.522;2024-01-06T08:13:19;4.90;;;1.48;;
28357;SDS011;15605;48.114;11.522;2024-01-06T08:15:49;2.28;;;1.25;;
28357;SDS011;15605;48.114;11.522;2024-01-06T08:18:20;1.65;;;1.05;;
28357;SDS011;15605;48.114;11.522;2024-01-06T08:20:51;3.25;;;1.23;;
28357;SDS011;15605;48.114;11.522;2024-01-06T08:23:22;2.65;;;1.33;;
28357;SDS011;15605;48.114;11.522;2024-01-06T08:25:53;1.33;;;0.95;;
28357;SDS011;15605;48.114;11.522;2024-01-06T08:28:23;2.13;;;1.10;;
28357;SDS011;15605;48.114;11.522;2024-01-06T08:30:53;1.95;;;1.23;;
28357;SDS011;15605;48.114;11.522;2024-01-06T08:33:23;1.02;;;0.93;;
28357;SDS011;15605;48.114;11.522;2024-01-06T08:35:52;2.35;;;1.15;;
28357;SDS011;15605;48.114;11.522;2024-01-06T08:38:26;1.60;;;1.27;;
28357;SDS011;15605;48.114;11.522;2024-01-06T08:40:57;2.15;;;1.35;;
28357;SDS011;15605;48.114;11.522;2024-01-06T08:43:31;3.85;;;1.50;;
28357;SDS011;15605;48.114;11.522;2024-01-06T08:46:04;2.30;;;1.27;;
28357;SDS011;15605;48.114;11.522;2024-01-06T08:48:36;3.50;;;1.10;;
28357;SDS011;15605;48.114;11.522;2024-01-06T08:51:06;3.63;;;1.20;;
28357;SDS011;15605;48.114;11.522;2024-01-06T08:53:38;2.15;;;1.40;;
28357;SDS011;15605;48.114;11.522;2024-01-06T08:56:10;1.27;;;0.95;;
28357;SDS011;15605;48.114;11.522;2024-01-06T08:58:41;4.78;;;1.17;;
28357;SDS011;15605;48.114;11.522;2024-01-06T09:01:12;3.05;;;1.10;;
28357;SDS011;15605;48.114;11.522;2024-01-06T09:03:44;4.43;;;1.55;;
28357;SDS011;15605;48.114;11.522;2024-01-06T09:06:15;5.15;;;1.10;;
28357;SDS011;15605;48.114;11.522;2024-01-06T09:08:47;2.42;;;1.15;;
28357;SDS011;15605;48.114;11.522;2024-01-06T09:11:18;4.13;;;1.40;;
28357;SDS011;15605;48.114;11.522;2024-01-06T09:13:50;2.55;;;1.25;;
28357;SDS011;15605;48.114;11.522;2024-01-06T09:16:22;2.08;;;1.15;;
28357;SDS011;15605;48.114;11.522;2024-01-06T09:18:53;2.22;;;1.15;;
28357;SDS011;15605;48.114;11.522;2024-01-06T09:23:57;1.95;;;1.00;;
28357;SDS011;15605;48.114;11.522;2024-01-06T09:26:35;3.30;;;1.20;;
28357;SDS011;15605;48.114;11.522;2024-01-06T09:29:07;3.83;;;1.42;;
28357;SDS011;15605;48.114;11.522;2024-01-06T09:31:39;3.92;;;1.40;;
28357;SDS011;15605;48.114;11.522;2024-01-06T09:34:14;3.22;;;1.10;;
28357;SDS011;15605;48.114;11.522;2024-01-06T09:36:46;3.10;;;1.20;;
28357;SDS011;15605;48.114;11.522;2024-01-06T09:39:18;2.60;;;1.15;;
28357;SDS011;15605;48.114;11.522;2024-01-06T09:41:48;2.90;;;1.20;;
28357;SDS011;15605;48.114;11.522;2024-01-06T09:44:19;1.38;;;1.13;;
28357;SDS011;15605;48.114;11.522;2024-01-06T09:46:51;7.18;;;1.30;;
28357;SDS011;15605;48.114;11.522;2024-01-06T09:49:26;2.60;;;1.45;;
28357;SDS011;15605;48.114;11.522;2024-01-06T09:52:03;2.85;;;1.38;;
28357;SDS011;15605;48.114;11.522;2024-01-06T09:54:51;4.75;;;1.38;;
28357;SDS011;15605;48.114;11.522;2024-01-06T09:57:23;1.98;;;1.20;;
28357;SDS011;15605;48.114;11.522;2024-01-06T09:59:54;3.63;;;1.63;;
28357;SDS011;15605;48.114;11.522;2024-01-06T10:02:41;2.55;;;1.38;;
28357;SDS011;15605;48.114;11.522;2024-01-06T10:05:58;1.83;;;1.10;;
28357;SDS011;15605;48.114;11.522;2024-01-06T10:08:32;3.17;;;1.67;;
28357;SDS011;15605;48.114;11.522;2024-01-06T10:11:10;3.63;;;1.40;;
28357;SDS011;15605;48.114;11.522;2024-01-06T10:13:45;2.90;;;1.35;;
28357;SDS011;15605;48.114;11.522;2024-01-06T10:16:41;4.40;;;1.58;;
28357;SDS011;15605;48.114;11.522;2024-01-06T10:22:29;4.15;;;1.70;;
28357;SDS011;15605;48.114;11.522;2024-01-06T10:25:12;2.90;;;1.50;;
28357;SDS011;15605;48.114;11.522;2024-01-06T10:27:46;1.90;;;1.00;;
28357;SDS011;15605;48.114;11.522;2024-01-06T10:30:18;2.63;;;1.10;;
28357;SDS011;15605;48.114;11.522;2024-01-06T10:32:50;4.35;;;1.58;;
28357;SDS011;15605;48.114;11.522;2024-01-06T10:35:23;4.35;;;1.80;;
28357;SDS011;15605;48.114;11.522;2024-01-06T10:49:20;1.88;;;1.50;;
28357;SDS011;15605;48.114;11.522;2024-01-06T10:51:57;4.00;;;1.73;;
28357;SDS011;15605;48.114;11.522;2024-01-06T10:54:31;3.42;;;1.50;;
28357;SDS011;15605;48.114;11.522;2024-01-06T10:57:02;4.47;;;1.58;;
28357;SDS011;15605;48.114;11.522;2024-01-06T10:59:39;3.72;;;1.60;;
28357;SDS011;15605;48.114;11.522;2024-01-06T11:02:30;3.55;;;1.63;;
28357;SDS011;15605;48.114;11.522;2024-01-06T11:05:06;2.67;;;1.80;;
28357;SDS011;15605;48.114;11.522;2024-01-06T11:07:54;4.70;;;1.70;;
28357;SDS011;15605;48.114;11.522;2024-01-06T11:10:40;4.05;;;2.00;;
28357;SDS011;15605;48.114;11.522;2024-01-06T11:13:24;2.67;;;1.60;;
28357;SDS011;15605;48.114;11.522;2024-01-06T11:20:04;3.83;;;1.60;;
28357;SDS011;15605;48.114;11.522;2024-01-06T11:22:37;3.67;;;1.85;;
28357;SDS011;15605;48.114;11.522;2024-01-06T11:25:15;2.75;;;1.48;;
28357;SDS011;15605;48.114;11.522;2024-01-06T11:27:57;3.85;;;1.75;;
28357;SDS011;15605;48.114;11.522;2024-01-06T11:35:11;7.82;;;2.20;;
28357;SDS011;15605;48.114;11.522;2024-01-06T11:47:36;5.07;;;2.08;;
28357;SDS011;15605;48.114;11.522;2024-01-06T11:50:12;5.20;;;1.83;;
28357;SDS011;15605;48.114;11.522;2024-01-06T11:52:44;4.30;;;1.77;;
28357;SDS011;15605;48.114;11.522;2024-01-06T11:55:17;4.90;;;1.95;;
28357;SDS011;15605;48.114;11.522;2024-01-06T11:57:51;3.67;;;1.70;;
28357;SDS011;15605;48.114;11.522;2024-01-06T12:00:26;3.63;;;1.80;;
28357;SDS011;15605;48.114;11.522;2024-01-06T12:03:00;6.05;;;2.15;;
28357;SDS011;15605;48.114;11.522;2024-01-06T12:05:34;4.70;;;2.13;;
28357;SDS011;15605;48.114;11.522;2024-01-06T12:08:09;4.20;;;1.88;;
28357;SDS011;15605;48.114;11.522;2024-01-06T12:14:33;7.30;;;2.33;;
28357;SDS011;15605;48.114;11.522;2024-01-06T12:17:21;4.63;;;2.13;;
28357;SDS011;15605;48.114;11.522;2024-01-06T12:20:00;8.85;;;2.30;;
28357;SDS011;15605;48.114;11.522;2024-01-06T12:25:38;4.93;;;2.00;;
28357;SDS011;15605;48.114;11.522;2024-01-06T12:28:18;3.65;;;2.35;;
28357;SDS011;15605;48.114;11.522;2024-01-06T12:34:57;4.90;;;2.00;;
28357;SDS011;15605;48.114;11.522;2024-01-06T12:37:32;4.93;;;2.00;;
28357;SDS011;15605;48.114;11.522;2024-01-06T12:46:43;5.65;;;2.80;;
28357;SDS011;15605;48.114;11.522;2024-01-06T12:49:13;5.07;;;2.20;;
28357;SDS011;15605;48.114;11.522;2024-01-06T12:51:54;4.03;;;2.10;;
28357;SDS011;15605;48.114;11.522;2024-01-06T12:58:48;3.78;;;1.80;;
28357;SDS011;15605;48.114;11.522;2024-01-06T13:01:20;5.55;;;2.25;;
28357;SDS011;15605;48.114;11.522;2024-01-06T13:07:38;4.90;;;1.92;;
28357;SDS011;15605;48.114;11.522;2024-01-06T13:10:10;3.58;;;1.92;;
28357;SDS011;15605;48.114;11.522;2024-01-06T13:12:43;5.28;;;2.30;;
28357;SDS011;15605;48.114;11.522;2024-01-06T13:15:17;5.38;;;2.13;;
28357;SDS011;15605;48.114;11.522;2024-01-06T13:17:48;5.18;;;1.85;;
28357;SDS011;15605;48.114;11.522;2024-01-06T13:20:21;5.43;;;2.03;;
28357;SDS011;15605;48.114;11.522;2024-01-06T13:22:53;5.15;;;2.15;;
28357;SDS011;15605;48.114;11.522;2024-01-06T13:25:25;3.70;;;2.00;;
28357;SDS011;15605;48.114;11.522;2024-01-06T13:28:03;5.05;;;1.95;;
28357;SDS011;15605;48.114;11.522;2024-01-06T13:30:33;5.90;;;1.90;;
28357;SDS011;15605;48.114;11.522;2024-01-06T13:33:08;6.38;;;1.83;;
28357;SDS011;15605;48.114;11.522;2024-01-06T13:35:38;5.50;;;2.17;;
28357;SDS011;15605;48.114;11.522;2024-01-06T13:38:17;3.60;;;2.00;;
28357;SDS011;15605;48.114;11.522;2024-01-06T13:40:51;4.18;;;1.75;;
28357;SDS011;15605;48.114;11.522;2024-01-06T13:54:32;4.05;;;1.63;;
28357;SDS011;15605;48.114;11.522;2024-01-06T14:04:39;5.43;;;1.88;;
28357;SDS011;15605;48.114;11.522;2024-01-06T14:10:26;4.95;;;1.63;;
28357;SDS011;15605;48.114;11.522;2024-01-06T14:13:59;3.72;;;1.90;;
28357;SDS011;15605;48.114;11.522;2024-01-06T14:19:24;3.50;;;1.90;;
28357;SDS011;15605;48.114;11.522;2024-01-06T14:21:57;5.90;;;2.33;;
28357;SDS011;15605;48.114;11.522;2024-01-06T14:24:27;3.80;;;1.95;;
28357;SDS011;15605;48.114;11.522;2024-01-06T14:27:02;3.40;;;1.85;;
28357;SDS011;15605;48.114;11.522;2024-01-06T14:29:35;3.45;;;1.70;;
28357;SDS011;15605;48.114;11.522;2024-01-06T14:32:07;4.85;;;2.38;;
28357;SDS011;15605;48.114;11.522;2024-01-06T14:34:41;6.13;;;2.53;;
28357;SDS011;15605;48.114;11.522;2024-01-06T14:37:12;4.60;;;2.03;;
28357;SDS011;15605;48.114;11.522;2024-01-06T14:39:45;5.45;;;2.50;;
28357;SDS011;15605;48.114;11.522;2024-01-06T14:45:08;4.55;;;2.08;;
28357;SDS011;15605;48.114;11.522;2024-01-06T14:47:42;4.25;;;2.05;;
28357;SDS011;15605;48.114;11.522;2024-01-06T14:50:14;3.72;;;2.28;;
28357;SDS011;15605;48.114;11.522;2024-01-06T14:52:46;5.45;;;2.88;;
28357;SDS011;15605;48.114;11.522;2024-01-06T14:55:22;6.70;;;2.50;;
28357;SDS011;15605;48.114;11.522;2024-01-06T14:57:55;4.73;;;2.33;;
28357;SDS011;15605;48.114;11.522;2024-01-06T15:00:27;8.00;;;2.70;;
28357;SDS011;15605;48.114;11.522;2024-01-06T15:06:06;4.32;;;2.75;;
28357;SDS011;15605;48.114;11.522;2024-01-06T15:08:39;5.30;;;2.50;;
28357;SDS011;15605;48.114;11.522;2024-01-06T15:11:10;5.05;;;2.83;;
28357;SDS011;15605;48.114;11.522;2024-01-06T15:13:50;4.05;;;2.58;;
28357;SDS011;15605;48.114;11.522;2024-01-06T15:20:11;4.90;;;2.67;;
28357;SDS011;15605;48.114;11.522;2024-01-06T15:30:35;3.80;;;2.47;;
28357;SDS011;15605;48.114;11.522;2024-01-06T15:33:08;4.68;;;2.83;;
28357;SDS011;15605;48.114;11.522;2024-01-06T15:35:49;5.30;;;3.00;;
28357;SDS011;15605;48.114;11.522;2024-01-06T15:38:30;4.20;;;2.92;;
28357;SDS011;15605;48.114;11.522;2024-01-06T15:44:49;5.30;;;2.83;;
28357;SDS011;15605;48.114;11.522;2024-01-06T15:47:21;5.65;;;3.13;;
28357;SDS011;15605;48.114;11.522;2024-01-06T15:49:59;7.43;;;3.10;;
28357;SDS011;15605;48.114;11.522;2024-01-06T16:53:22;5.45;;;3.65;;
28357;SDS011;15605;48.114;11.522;2024-01-06T16:55:56;4.50;;;3.60;;
28357;SDS011;15605;48.114;11.522;2024-01-06T16:58:28;5.60;;;4.05;;
28357;SDS011;15605;48.114;11.522;2024-01-06T17:01:02;7.53;;;4.60;;
28357;SDS011;15605;48.114;11.522;2024-01-06T17:03:35;5.10;;;3.53;;
28357;SDS011;15605;48.114;11.522;2024-01-06T17:06:08;8.57;;;4.55;;
28357;SDS011;15605;48.114;11.522;2024-01-06T17:08:40;5.50;;;3.53;;
28357;SDS011;15605;48.114;11.522;2024-01-06T17:11:10;5.82;;;3.72;;
28357;SDS011;15605;48.114;11.522;2024-01-06T17:13:46;5.75;;;3.85;;
28357;SDS011;15605;48.114;11.522;2024-01-06T17:16:18;5.05;;;4.05;;
28357;SDS011;15605;48.114;11.522;2024-01-06T17:18:50;6.82;;;4.45;;
28357;SDS011;15605;48.114;11.522;2024-01-06T17:21:22;5.70;;;4.13;;
28357;SDS011;15605;48.114;11.522;2024-01-06T17:23:53;5.28;;;3.83;;
28357;SDS011;15605;48.114;11.522;2024-01-06T17:26:26;6.22;;;4.18;;
28357;SDS011;15605;48.114;11.522;2024-01-06T17:28:59;4.03;;;3.63;;
28357;SDS011;15605;48.114;11.522;2024-01-06T17:31:31;5.93;;;4.20;;
28357;SDS011;15605;48.114;11.522;2024-01-06T17:34:06;5.25;;;4.22;;
28357;SDS011;15605;48.114;11.522;2024-01-06T17:36:41;5.30;;;4.30;;
28357;SDS011;15605;48.114;11.522;2024-01-06T17:39:16;5.68;;;4.70;;
28357;SDS011;15605;48.114;11.522;2024-01-06T17:41:51;6.65;;;4.13;;
28357;SDS011;15605;48.114;11.522;2024-01-06T17:44:28;7.72;;;4.47;;
28357;SDS011;15605;48.114;11.522;2024-01-06T17:47:00;6.85;;;4.68;;
28357;SDS011;15605;48.114;11.522;2024-01-06T17:49:38;7.10;;;4.82;;
28357;SDS011;15605;48.114;11.522;2024-01-06T17:52:19;7.47;;;4.45;;
28357;SDS011;15605;48.114;11.522;2024-01-06T17:54:55;7.50;;;5.05;;
28357;SDS011;15605;48.114;11.522;2024-01-06T17:57:28;6.07;;;4.70;;
28357;SDS011;15605;48.114;11.522;2024-01-06T18:00:03;6.60;;;5.07;;
28357;SDS011;15605;48.114;11.522;2024-01-06T18:02:42;6.88;;;4.55;;
28357;SDS011;15605;48.114;11.522;2024-01-06T18:05:15;7.88;;;4.75;;
28357;SDS011;15605;48.114;11.522;2024-01-06T18:07:50;7.50;;;5.15;;
28357;SDS011;15605;48.114;11.522;2024-01-06T18:10:27;6.80;;;5.00;;
28357;SDS011;15605;48.114;11.522;2024-01-06T22:33:15;6.53;;;5.20;;
28357;SDS011;15605;48.114;11.522;2024-01-06T22:50:21;6.13;;;4.57;;
28357;SDS011;15605;48.114;11.522;2024-01-06T22:52:52;6.13;;;4.93;;
28357;SDS011;15605;48.114;11.522;2024-01-06T22:55:24;6.50;;;5.05;;
28357;SDS011;15605;48.114;11.522;2024-01-06T22:57:55;6.20;;;4.75;;
28357;SDS011;15605;48.114;11.522;2024-01-06T23:00:28;5.80;;;4.90;;
28357;SDS011;15605;48.114;11.522;2024-01-06T23:03:06;5.90;;;4.70;;
28357;SDS011;15605;48.114;11.522;2024-01-06T23:05:38;5.43;;;4.53;;
28357;SDS011;15605;48.114;11.522;2024-01-06T23:08:10;5.78;;;4.45;;
28357;SDS011;15605;48.114;11.522;2024-01-06T23:10:44;4.93;;;4.38;;
28357;SDS011;15605;48.114;11.522;2024-01-06T23:13:31;5.78;;;4.47;;
28357;SDS011;15605;48.114;11.522;2024-01-06T23:16:06;4.90;;;4.40;;
28357;SDS011;15605;48.114;11.522;2024-01-06T23:18:42;5.03;;;4.22;;
28357;SDS011;15605;48.114;11.522;2024-01-06T23:21:14;6.78;;;4.90;;
28357;SDS011;15605;48.114;11.522;2024-01-06T23:23:50;5.05;;;4.55;;